sensor_id;sensor_type;location;lat;lon;timestamp;P1;durP1;ratioP1;P2;durP2;ratioP2
54665;SDS011;40566;50.006;36.180;2022-08-03T00:03:48;10.38;;;4.70;;
54665;SDS011;40566;50.006;36.180;2022-08-03T00:08:48;8.60;;;3.92;;
54665;SDS011;40566;50.006;36.180;2022-08-03T00:13:49;8.27;;;4.45;;
54665;SDS011;40566;50.006;36.180;2022-08-03T00:18:50;8.05;;;4.03;;
54665;SDS011;40566;50.006;36.180;2022-08-03T00:23:51;7.88;;;3.83;;
54665;SDS011;40566;50.006;36.180;2022-08-03T00:28:51;8.18;;;3.55;;
54665;SDS011;40566;50.006;36.180;2022-08-03T00:33:52;8.85;;;3.63;;
54665;SDS011;40566;50.006;36.180;2022-08-03T00:38:53;10.93;;;4.00;;
54665;SDS011;40566;50.006;36.180;2022-08-03T00:43:54;9.00;;;4.07;;
54665;SDS011;40566;50.006;36.180;2022-08-03T00:48:54;9.05;;;3.65;;
54665;SDS011;40566;50.006;36.180;2022-08-03T00:53:55;8.25;;;3.85;;
54665;SDS011;40566;50.006;36.180;2022-08-03T00:58:56;9.57;;;3.95;;
54665;SDS011;40566;50.006;36.180;2022-08-03T01:03:57;9.98;;;3.60;;
54665;SDS011;40566;50.006;36.180;2022-08-03T01:09:02;6.07;;;3.10;;
54665;SDS011;40566;50.006;36.180;2022-08-03T01:14:52;7.67;;;3.33;;
54665;SDS011;40566;50.006;36.180;2022-08-03T01:20:06;8.32;;;3.47;;
54665;SDS011;40566;50.006;36.180;2022-08-03T01:30:32;13.15;;;3.78;;
54665;SDS011;40566;50.006;36.180;2022-08-03T01:41:04;7.93;;;3.50;;
54665;SDS011;40566;50.006;36.180;2022-08-03T01:46:09;7.77;;;3.37;;
54665;SDS011;40566;50.006;36.180;2022-08-03T01:51:11;8.50;;;3.97;;
54665;SDS011;40566;50.006;36.180;2022-08-03T01:56:14;8.57;;;3.72;;
54665;SDS011;40566;50.006;36.180;2022-08-03T02:01:17;9.35;;;3.80;;
54665;SDS011;40566;50.006;36.180;2022-08-03T02:06:19;8.20;;;3.85;;
54665;SDS011;40566;50.006;36.180;2022-08-03T02:11:21;10.80;;;3.95;;
54665;SDS011;40566;50.006;36.180;2022-08-03T02:16:22;11.18;;;3.50;;
54665;SDS011;40566;50.006;36.180;2022-08-03T02:21:24;8.40;;;3.78;;
54665;SDS011;40566;50.006;36.180;2022-08-03T02:26:28;9.20;;;3.92;;
54665;SDS011;40566;50.006;36.180;2022-08-03T02:31:30;7.43;;;3.30;;
54665;SDS011;40566;50.006;36.180;2022-08-03T02:36:34;9.88;;;3.80;;
54665;SDS011;40566;50.006;36.180;2022-08-03T02:41:42;9.77;;;4.03;;
54665;SDS011;40566;50.006;36.180;2022-08-03T02:46:48;9.82;;;3.58;;
54665;SDS011;40566;50.006;36.180;2022-08-03T02:51:58;8.15;;;3.60;;
54665;SDS011;40566;50.006;36.180;2022-08-03T02:57:00;10.23;;;4.22;;
54665;SDS011;40566;50.006;36.180;2022-08-03T03:02:01;10.32;;;4.40;;
54665;SDS011;40566;50.006;36.180;2022-08-03T03:07:03;7.90;;;3.83;;
54665;SDS011;40566;50.006;36.180;2022-08-03T03:12:04;10.07;;;4.00;;
54665;SDS011;40566;50.006;36.180;2022-08-03T03:17:08;9.65;;;4.13;;
54665;SDS011;40566;50.006;36.180;2022-08-03T03:22:10;8.85;;;3.88;;
54665;SDS011;40566;50.006;36.180;2022-08-03T03:27:13;9.02;;;4.05;;
54665;SDS011;40566;50.006;36.180;2022-08-03T03:32:14;8.10;;;3.92;;
54665;SDS011;40566;50.006;36.180;2022-08-03T03:37:15;11.55;;;4.32;;
54665;SDS011;40566;50.006;36.180;2022-08-03T03:42:15;9.30;;;4.60;;
54665;SDS011;40566;50.006;36.180;2022-08-03T03:47:16;11.43;;;5.03;;
54665;SDS011;40566;50.006;36.180;2022-08-03T03:52:17;10.80;;;4.53;;
54665;SDS011;40566;50.006;36.180;2022-08-03T03:57:18;11.98;;;5.20;;
54665;SDS011;40566;50.006;36.180;2022-08-03T04:02:18;11.55;;;5.18;;
54665;SDS011;40566;50.006;36.180;2022-08-03T04:07:19;10.65;;;5.32;;
54665;SDS011;40566;50.006;36.180;2022-08-03T04:12:41;9.35;;;4.05;;
54665;SDS011;40566;50.006;36.180;2022-08-03T04:17:43;8.07;;;4.50;;
54665;SDS011;40566;50.006;36.180;2022-08-03T04:22:44;10.98;;;4.15;;
54665;SDS011;40566;50.006;36.180;2022-08-03T04:27:47;9.30;;;4.20;;
54665;SDS011;40566;50.006;36.180;2022-08-03T04:32:51;9.30;;;4.03;;
54665;SDS011;40566;50.006;36.180;2022-08-03T04:37:53;8.73;;;4.38;;
54665;SDS011;40566;50.006;36.180;2022-08-03T04:42:58;11.10;;;5.15;;
54665;SDS011;40566;50.006;36.180;2022-08-03T04:48:00;11.48;;;5.10;;
54665;SDS011;40566;50.006;36.180;2022-08-03T04:53:04;9.80;;;5.25;;
54665;SDS011;40566;50.006;36.180;2022-08-03T04:58:05;11.60;;;5.63;;
54665;SDS011;40566;50.006;36.180;2022-08-03T05:03:06;13.50;;;6.20;;
54665;SDS011;40566;50.006;36.180;2022-08-03T05:08:06;12.77;;;6.13;;
54665;SDS011;40566;50.006;36.180;2022-08-03T05:13:07;11.35;;;5.45;;
54665;SDS011;40566;50.006;36.180;2022-08-03T05:18:12;10.07;;;4.95;;
54665;SDS011;40566;50.006;36.180;2022-08-03T05:23:12;10.75;;;5.47;;
54665;SDS011;40566;50.006;36.180;2022-08-03T05:28:13;12.32;;;5.75;;
54665;SDS011;40566;50.006;36.180;2022-08-03T05:33:14;13.57;;;6.20;;
54665;SDS011;40566;50.006;36.180;2022-08-03T05:38:14;14.18;;;6.03;;
54665;SDS011;40566;50.006;36.180;2022-08-03T05:43:15;10.60;;;6.05;;
54665;SDS011;40566;50.006;36.180;2022-08-03T05:48:16;14.18;;;5.78;;
54665;SDS011;40566;50.006;36.180;2022-08-03T05:53:16;12.15;;;5.25;;
54665;SDS011;40566;50.006;36.180;2022-08-03T05:58:17;13.80;;;6.15;;
54665;SDS011;40566;50.006;36.180;2022-08-03T06:03:17;10.73;;;6.18;;
54665;SDS011;40566;50.006;36.180;2022-08-03T06:08:19;14.45;;;5.82;;
54665;SDS011;40566;50.006;36.180;2022-08-03T06:13:19;12.40;;;6.03;;
54665;SDS011;40566;50.006;36.180;2022-08-03T06:18:21;11.40;;;5.75;;
54665;SDS011;40566;50.006;36.180;2022-08-03T06:23:23;11.85;;;6.10;;
54665;SDS011;40566;50.006;36.180;2022-08-03T06:28:24;13.98;;;6.40;;
54665;SDS011;40566;50.006;36.180;2022-08-03T06:33:24;11.77;;;5.70;;
54665;SDS011;40566;50.006;36.180;2022-08-03T06:38:25;11.15;;;5.68;;
54665;SDS011;40566;50.006;36.180;2022-08-03T06:43:26;11.38;;;5.97;;
54665;SDS011;40566;50.006;36.180;2022-08-03T06:48:26;15.10;;;5.97;;
54665;SDS011;40566;50.006;36.180;2022-08-03T06:53:27;13.70;;;6.40;;
54665;SDS011;40566;50.006;36.180;2022-08-03T06:58:28;11.20;;;6.00;;
54665;SDS011;40566;50.006;36.180;2022-08-03T07:03:28;11.20;;;6.10;;
54665;SDS011;40566;50.006;36.180;2022-08-03T07:08:29;11.35;;;6.10;;
54665;SDS011;40566;50.006;36.180;2022-08-03T07:13:30;13.25;;;6.63;;
54665;SDS011;40566;50.006;36.180;2022-08-03T07:18:30;12.38;;;6.15;;
54665;SDS011;40566;50.006;36.180;2022-08-03T07:23:31;12.57;;;6.93;;
54665;SDS011;40566;50.006;36.180;2022-08-03T07:28:32;16.80;;;6.70;;
54665;SDS011;40566;50.006;36.180;2022-08-03T07:33:32;13.02;;;5.90;;
54665;SDS011;40566;50.006;36.180;2022-08-03T07:38:34;12.07;;;5.63;;
54665;SDS011;40566;50.006;36.180;2022-08-03T07:43:36;11.25;;;6.47;;
54665;SDS011;40566;50.006;36.180;2022-08-03T07:48:36;12.90;;;6.22;;
54665;SDS011;40566;50.006;36.180;2022-08-03T07:53:37;11.55;;;6.05;;
54665;SDS011;40566;50.006;36.180;2022-08-03T07:58:37;11.80;;;6.13;;
54665;SDS011;40566;50.006;36.180;2022-08-03T08:03:38;13.02;;;5.85;;
54665;SDS011;40566;50.006;36.180;2022-08-03T08:08:39;12.40;;;6.03;;
54665;SDS011;40566;50.006;36.180;2022-08-03T08:13:40;13.57;;;6.00;;
54665;SDS011;40566;50.006;36.180;2022-08-03T08:18:40;11.48;;;5.85;;
54665;SDS011;40566;50.006;36.180;2022-08-03T08:23:41;13.95;;;6.32;;
54665;SDS011;40566;50.006;36.180;2022-08-03T08:28:42;12.93;;;5.80;;
54665;SDS011;40566;50.006;36.180;2022-08-03T08:33:43;12.23;;;6.15;;
54665;SDS011;40566;50.006;36.180;2022-08-03T08:38:43;12.93;;;6.35;;
54665;SDS011;40566;50.006;36.180;2022-08-03T08:43:44;12.20;;;6.00;;
54665;SDS011;40566;50.006;36.180;2022-08-03T08:48:45;13.30;;;5.88;;
54665;SDS011;40566;50.006;36.180;2022-08-03T08:53:49;16.75;;;6.78;;
54665;SDS011;40566;50.006;36.180;2022-08-03T08:58:52;15.23;;;6.25;;
54665;SDS011;40566;50.006;36.180;2022-08-03T09:03:57;12.73;;;6.78;;
54665;SDS011;40566;50.006;36.180;2022-08-03T09:08:57;15.10;;;7.18;;
54665;SDS011;40566;50.006;36.180;2022-08-03T09:13:59;14.88;;;7.93;;
54665;SDS011;40566;50.006;36.180;2022-08-03T09:19:10;16.88;;;7.65;;
54665;SDS011;40566;50.006;36.180;2022-08-03T09:24:16;17.27;;;8.07;;
54665;SDS011;40566;50.006;36.180;2022-08-03T09:29:20;13.77;;;7.25;;
54665;SDS011;40566;50.006;36.180;2022-08-03T09:34:23;18.33;;;7.57;;
54665;SDS011;40566;50.006;36.180;2022-08-03T09:39:27;14.60;;;8.13;;
54665;SDS011;40566;50.006;36.180;2022-08-03T09:44:34;16.42;;;7.55;;
54665;SDS011;40566;50.006;36.180;2022-08-03T09:49:42;14.30;;;7.53;;
54665;SDS011;40566;50.006;36.180;2022-08-03T09:54:57;16.30;;;7.93;;
54665;SDS011;40566;50.006;36.180;2022-08-03T10:00:07;12.65;;;7.72;;
54665;SDS011;40566;50.006;36.180;2022-08-03T10:05:11;14.90;;;7.75;;
54665;SDS011;40566;50.006;36.180;2022-08-03T10:10:13;13.27;;;7.03;;
54665;SDS011;40566;50.006;36.180;2022-08-03T10:15:15;13.52;;;7.68;;
54665;SDS011;40566;50.006;36.180;2022-08-03T10:20:15;13.15;;;6.50;;
54665;SDS011;40566;50.006;36.180;2022-08-03T10:25:16;12.98;;;6.85;;
54665;SDS011;40566;50.006;36.180;2022-08-03T10:30:17;12.55;;;6.28;;
54665;SDS011;40566;50.006;36.180;2022-08-03T10:35:19;12.65;;;6.70;;
54665;SDS011;40566;50.006;36.180;2022-08-03T10:40:21;11.73;;;6.38;;
54665;SDS011;40566;50.006;36.180;2022-08-03T10:45:25;13.65;;;6.65;;
54665;SDS011;40566;50.006;36.180;2022-08-03T10:50:27;14.15;;;5.97;;
54665;SDS011;40566;50.006;36.180;2022-08-03T10:55:31;13.65;;;6.75;;
54665;SDS011;40566;50.006;36.180;2022-08-03T11:01:11;11.20;;;6.03;;
54665;SDS011;40566;50.006;36.180;2022-08-03T11:06:16;11.93;;;5.63;;
54665;SDS011;40566;50.006;36.180;2022-08-03T11:16:22;12.85;;;6.40;;
54665;SDS011;40566;50.006;36.180;2022-08-03T11:27:07;11.95;;;6.10;;
54665;SDS011;40566;50.006;36.180;2022-08-03T11:48:01;12.82;;;6.13;;
54665;SDS011;40566;50.006;36.180;2022-08-03T11:53:14;11.90;;;6.30;;
54665;SDS011;40566;50.006;36.180;2022-08-03T11:58:20;13.55;;;6.28;;
54665;SDS011;40566;50.006;36.180;2022-08-03T12:03:22;10.05;;;5.90;;
54665;SDS011;40566;50.006;36.180;2022-08-03T12:13:27;11.23;;;6.32;;
54665;SDS011;40566;50.006;36.180;2022-08-03T12:18:36;11.45;;;5.95;;
54665;SDS011;40566;50.006;36.180;2022-08-03T12:23:37;9.93;;;5.88;;
54665;SDS011;40566;50.006;36.180;2022-08-03T12:28:38;11.75;;;6.07;;
54665;SDS011;40566;50.006;36.180;2022-08-03T12:33:54;17.52;;;6.57;;
54665;SDS011;40566;50.006;36.180;2022-08-03T12:39:07;15.07;;;6.32;;
54665;SDS011;40566;50.006;36.180;2022-08-03T12:44:08;13.57;;;7.65;;
54665;SDS011;40566;50.006;36.180;2022-08-03T12:49:12;12.52;;;7.22;;
54665;SDS011;40566;50.006;36.180;2022-08-03T12:54:17;10.00;;;5.40;;
54665;SDS011;40566;50.006;36.180;2022-08-03T12:59:24;7.55;;;3.60;;
54665;SDS011;40566;50.006;36.180;2022-08-03T13:04:32;7.30;;;3.30;;
54665;SDS011;40566;50.006;36.180;2022-08-03T13:10:07;9.60;;;4.18;;
54665;SDS011;40566;50.006;36.180;2022-08-03T13:15:01;9.45;;;4.72;;
54665;SDS011;40566;50.006;36.180;2022-08-03T13:20:02;10.68;;;4.35;;
54665;SDS011;40566;50.006;36.180;2022-08-03T13:25:03;14.25;;;4.93;;
54665;SDS011;40566;50.006;36.180;2022-08-03T13:30:04;12.32;;;5.82;;
54665;SDS011;40566;50.006;36.180;2022-08-03T13:35:06;13.55;;;6.55;;
54665;SDS011;40566;50.006;36.180;2022-08-03T13:40:08;11.23;;;6.20;;
54665;SDS011;40566;50.006;36.180;2022-08-03T13:45:09;12.15;;;6.60;;
54665;SDS011;40566;50.006;36.180;2022-08-03T13:50:10;14.55;;;6.40;;
54665;SDS011;40566;50.006;36.180;2022-08-03T13:55:11;13.05;;;5.35;;
54665;SDS011;40566;50.006;36.180;2022-08-03T14:00:11;12.38;;;6.13;;
54665;SDS011;40566;50.006;36.180;2022-08-03T14:05:12;13.45;;;6.03;;
54665;SDS011;40566;50.006;36.180;2022-08-03T14:10:13;13.68;;;6.28;;
54665;SDS011;40566;50.006;36.180;2022-08-03T14:15:14;13.70;;;6.55;;
54665;SDS011;40566;50.006;36.180;2022-08-03T14:20:14;14.25;;;6.03;;
54665;SDS011;40566;50.006;36.180;2022-08-03T14:25:15;12.80;;;6.38;;
54665;SDS011;40566;50.006;36.180;2022-08-03T14:30:16;24.63;;;10.70;;
54665;SDS011;40566;50.006;36.180;2022-08-03T14:35:17;21.40;;;11.10;;
54665;SDS011;40566;50.006;36.180;2022-08-03T14:40:18;20.05;;;9.75;;
54665;SDS011;40566;50.006;36.180;2022-08-03T14:45:19;13.93;;;7.10;;
54665;SDS011;40566;50.006;36.180;2022-08-03T14:50:19;12.77;;;7.00;;
54665;SDS011;40566;50.006;36.180;2022-08-03T14:55:21;14.15;;;7.18;;
54665;SDS011;40566;50.006;36.180;2022-08-03T15:00:22;12.40;;;6.68;;
54665;SDS011;40566;50.006;36.180;2022-08-03T15:05:22;13.48;;;7.30;;
54665;SDS011;40566;50.006;36.180;2022-08-03T15:10:23;13.52;;;6.88;;
54665;SDS011;40566;50.006;36.180;2022-08-03T15:15:24;12.13;;;6.85;;
54665;SDS011;40566;50.006;36.180;2022-08-03T15:20:24;12.15;;;6.30;;
54665;SDS011;40566;50.006;36.180;2022-08-03T15:25:25;16.15;;;7.78;;
54665;SDS011;40566;50.006;36.180;2022-08-03T15:30:26;13.10;;;6.63;;
54665;SDS011;40566;50.006;36.180;2022-08-03T15:35:26;17.35;;;6.95;;
54665;SDS011;40566;50.006;36.180;2022-08-03T15:40:28;16.33;;;7.80;;
54665;SDS011;40566;50.006;36.180;2022-08-03T15:45:28;15.23;;;7.53;;
54665;SDS011;40566;50.006;36.180;2022-08-03T15:50:30;15.45;;;8.68;;
54665;SDS011;40566;50.006;36.180;2022-08-03T15:55:30;18.52;;;8.38;;
54665;SDS011;40566;50.006;36.180;2022-08-03T16:00:31;12.38;;;6.03;;
54665;SDS011;40566;50.006;36.180;2022-08-03T16:05:32;13.38;;;6.32;;
54665;SDS011;40566;50.006;36.180;2022-08-03T16:10:33;12.07;;;6.63;;
54665;SDS011;40566;50.006;36.180;2022-08-03T16:15:34;11.82;;;6.32;;
54665;SDS011;40566;50.006;36.180;2022-08-03T16:20:35;13.82;;;6.03;;
54665;SDS011;40566;50.006;36.180;2022-08-03T16:25:36;11.85;;;5.93;;
54665;SDS011;40566;50.006;36.180;2022-08-03T16:30:37;14.68;;;6.38;;
54665;SDS011;40566;50.006;36.180;2022-08-03T16:35:38;12.23;;;6.05;;
54665;SDS011;40566;50.006;36.180;2022-08-03T16:40:39;11.60;;;5.95;;
54665;SDS011;40566;50.006;36.180;2022-08-03T16:45:39;12.77;;;6.30;;
54665;SDS011;40566;50.006;36.180;2022-08-03T16:50:40;13.43;;;6.80;;
54665;SDS011;40566;50.006;36.180;2022-08-03T16:55:41;14.85;;;7.43;;
54665;SDS011;40566;50.006;36.180;2022-08-03T17:00:41;14.38;;;6.50;;
54665;SDS011;40566;50.006;36.180;2022-08-03T17:05:42;12.27;;;6.30;;
54665;SDS011;40566;50.006;36.180;2022-08-03T17:10:43;17.95;;;7.55;;
54665;SDS011;40566;50.006;36.180;2022-08-03T17:15:44;11.30;;;6.53;;
54665;SDS011;40566;50.006;36.180;2022-08-03T17:20:49;11.90;;;6.55;;
54665;SDS011;40566;50.006;36.180;2022-08-03T17:25:51;13.20;;;6.53;;
54665;SDS011;40566;50.006;36.180;2022-08-03T17:30:53;11.27;;;6.07;;
54665;SDS011;40566;50.006;36.180;2022-08-03T17:36:14;13.43;;;6.13;;
54665;SDS011;40566;50.006;36.180;2022-08-03T17:41:20;12.20;;;6.27;;
54665;SDS011;40566;50.006;36.180;2022-08-03T17:46:22;12.93;;;5.97;;
54665;SDS011;40566;50.006;36.180;2022-08-03T18:02:35;13.90;;;6.07;;
54665;SDS011;40566;50.006;36.180;2022-08-03T18:08:11;13.73;;;6.10;;
54665;SDS011;40566;50.006;36.180;2022-08-03T18:13:20;10.63;;;5.70;;
54665;SDS011;40566;50.006;36.180;2022-08-03T18:18:37;11.43;;;5.82;;
54665;SDS011;40566;50.006;36.180;2022-08-03T18:23:42;12.15;;;5.93;;
54665;SDS011;40566;50.006;36.180;2022-08-03T18:28:43;13.38;;;6.25;;
54665;SDS011;40566;50.006;36.180;2022-08-03T18:33:45;11.82;;;5.63;;
54665;SDS011;40566;50.006;36.180;2022-08-03T18:38:46;10.85;;;5.65;;
54665;SDS011;40566;50.006;36.180;2022-08-03T18:43:50;12.90;;;6.40;;
54665;SDS011;40566;50.006;36.180;2022-08-03T19:04:08;13.48;;;6.35;;
54665;SDS011;40566;50.006;36.180;2022-08-03T19:09:11;11.77;;;5.90;;
54665;SDS011;40566;50.006;36.180;2022-08-03T19:14:22;11.90;;;5.70;;
54665;SDS011;40566;50.006;36.180;2022-08-03T19:19:25;15.75;;;6.40;;
54665;SDS011;40566;50.006;36.180;2022-08-03T19:24:27;11.05;;;5.38;;
54665;SDS011;40566;50.006;36.180;2022-08-03T19:29:30;11.07;;;5.82;;
54665;SDS011;40566;50.006;36.180;2022-08-03T19:34:31;11.93;;;5.95;;
54665;SDS011;40566;50.006;36.180;2022-08-03T19:39:32;12.60;;;5.78;;
54665;SDS011;40566;50.006;36.180;2022-08-03T19:44:36;11.80;;;5.82;;
54665;SDS011;40566;50.006;36.180;2022-08-03T19:49:39;11.93;;;5.88;;
54665;SDS011;40566;50.006;36.180;2022-08-03T19:54:43;12.60;;;6.13;;
54665;SDS011;40566;50.006;36.180;2022-08-03T19:59:47;11.02;;;5.63;;
54665;SDS011;40566;50.006;36.180;2022-08-03T20:04:48;13.00;;;6.28;;
54665;SDS011;40566;50.006;36.180;2022-08-03T20:09:49;11.55;;;5.65;;
54665;SDS011;40566;50.006;36.180;2022-08-03T20:14:52;11.90;;;5.97;;
54665;SDS011;40566;50.006;36.180;2022-08-03T20:19:54;16.35;;;6.35;;
54665;SDS011;40566;50.006;36.180;2022-08-03T20:24:55;13.23;;;6.43;;
54665;SDS011;40566;50.006;36.180;2022-08-03T20:29:57;12.07;;;6.60;;
54665;SDS011;40566;50.006;36.180;2022-08-03T20:35:00;14.40;;;7.32;;
54665;SDS011;40566;50.006;36.180;2022-08-03T20:40:01;12.38;;;6.57;;
54665;SDS011;40566;50.006;36.180;2022-08-03T20:45:02;12.38;;;6.25;;
54665;SDS011;40566;50.006;36.180;2022-08-03T20:50:03;12.88;;;6.13;;
54665;SDS011;40566;50.006;36.180;2022-08-03T20:55:05;12.70;;;6.47;;
54665;SDS011;40566;50.006;36.180;2022-08-03T21:00:07;11.95;;;6.28;;
54665;SDS011;40566;50.006;36.180;2022-08-03T21:05:11;13.57;;;7.03;;
54665;SDS011;40566;50.006;36.180;2022-08-03T21:10:13;15.23;;;6.18;;
54665;SDS011;40566;50.006;36.180;2022-08-03T21:15:15;13.45;;;6.30;;
54665;SDS011;40566;50.006;36.180;2022-08-03T21:20:21;12.40;;;6.30;;
54665;SDS011;40566;50.006;36.180;2022-08-03T21:25:28;12.00;;;5.82;;
54665;SDS011;40566;50.006;36.180;2022-08-03T21:30:30;14.27;;;5.70;;
54665;SDS011;40566;50.006;36.180;2022-08-03T21:35:31;12.55;;;6.45;;
54665;SDS011;40566;50.006;36.180;2022-08-03T21:40:34;12.50;;;5.97;;
54665;SDS011;40566;50.006;36.180;2022-08-03T21:45:35;11.75;;;5.63;;
54665;SDS011;40566;50.006;36.180;2022-08-03T21:51:02;14.05;;;6.53;;
54665;SDS011;40566;50.006;36.180;2022-08-03T21:56:05;12.75;;;6.00;;
54665;SDS011;40566;50.006;36.180;2022-08-03T22:01:10;11.60;;;6.00;;
54665;SDS011;40566;50.006;36.180;2022-08-03T22:06:12;11.48;;;5.47;;
54665;SDS011;40566;50.006;36.180;2022-08-03T22:11:14;13.23;;;6.10;;
54665;SDS011;40566;50.006;36.180;2022-08-03T22:16:15;11.02;;;6.00;;
54665;SDS011;40566;50.006;36.180;2022-08-03T22:21:16;12.52;;;5.97;;
54665;SDS011;40566;50.006;36.180;2022-08-03T22:26:17;13.63;;;6.25;;
54665;SDS011;40566;50.006;36.180;2022-08-03T22:31:23;11.27;;;5.53;;
54665;SDS011;40566;50.006;36.180;2022-08-03T22:36:24;10.85;;;5.22;;
54665;SDS011;40566;50.006;36.180;2022-08-03T22:41:25;11.63;;;4.80;;
54665;SDS011;40566;50.006;36.180;2022-08-03T22:46:28;9.70;;;4.85;;
54665;SDS011;40566;50.006;36.180;2022-08-03T22:51:32;10.43;;;4.72;;
54665;SDS011;40566;50.006;36.180;2022-08-03T22:56:34;11.13;;;4.68;;
54665;SDS011;40566;50.006;36.180;2022-08-03T23:01:37;10.05;;;5.15;;
54665;SDS011;40566;50.006;36.180;2022-08-03T23:06:41;10.88;;;5.28;;
54665;SDS011;40566;50.006;36.180;2022-08-03T23:11:44;9.82;;;4.72;;
54665;SDS011;40566;50.006;36.180;2022-08-03T23:16:46;11.35;;;4.75;;
54665;SDS011;40566;50.006;36.180;2022-08-03T23:21:46;11.55;;;5.18;;
54665;SDS011;40566;50.006;36.180;2022-08-03T23:26:48;12.65;;;4.60;;
54665;SDS011;40566;50.006;36.180;2022-08-03T23:31:50;10.40;;;4.60;;
54665;SDS011;40566;50.006;36.180;2022-08-03T23:36:52;9.23;;;4.50;;
54665;SDS011;40566;50.006;36.180;2022-08-03T23:41:54;9.50;;;4.47;;
54665;SDS011;40566;50.006;36.180;2022-08-03T23:46:58;10.32;;;4.47;;
54665;SDS011;40566;50.006;36.180;2022-08-03T23:52:07;8.52;;;4.05;;
54665;SDS011;40566;50.006;36.180;2022-08-03T23:57:51;10.30;;;4.93;;
